Time;durP1;ratioP1;P1;durP2;ratioP2;P2;SDS_P1;SDS_P2;PMS_P1;PMS_P2;Temp;Humidity;BMP_temperature;BMP_pressure;BME280_temperature;BME280_humidity;BME280_pressure;Samples;Min_cycle;Max_cycle;Signal;HPM_P1;HPM_P2
2023/01/11 00:00:13;;;;;;;6.13;1.92;;;6.60;99.90;;;;;;4927779;29;20403;-69
2023/01/11 06:02:36;;;;;;;1.02;0.40;;;7.80;99.90;;;;;;5420212;23;20318;-74
2023/01/11 06:05:02;;;;;;;2.00;0.40;;;7.60;99.90;;;;;;4927839;29;20039;-73
2023/01/11 06:07:28;;;;;;;3.45;0.60;;;7.60;99.90;;;;;;4926715;29;20078;-73
2023/01/11 06:09:54;;;;;;;2.60;0.73;;;7.60;99.90;;;;;;4926229;29;20040;-71
2023/01/11 06:12:20;;;;;;;2.92;0.80;;;7.60;99.90;;;;;;4926775;29;20104;-70
2023/01/11 06:14:45;;;;;;;3.80;0.90;;;7.60;99.90;;;;;;4926881;29;20040;-71
2023/01/11 06:17:11;;;;;;;3.20;0.80;;;7.60;99.90;;;;;;4926872;29;20322;-71
2023/01/11 06:19:37;;;;;;;3.75;0.80;;;7.60;99.90;;;;;;4913002;29;20091;-71
2023/01/11 06:22:02;;;;;;;2.47;0.65;;;7.60;99.90;;;;;;4908471;29;20318;-71
2023/01/11 06:24:28;;;;;;;1.70;0.43;;;7.70;99.90;;;;;;4909052;29;20053;-71
2023/01/11 06:26:54;;;;;;;1.65;0.50;;;7.70;99.90;;;;;;4908209;29;20131;-70
2023/01/11 06:29:20;;;;;;;2.13;0.73;;;7.60;99.90;;;;;;4907843;29;20029;-71
2023/01/11 06:31:45;;;;;;;2.03;0.70;;;7.60;99.90;;;;;;4908490;29;20037;-72
2023/01/11 06:34:11;;;;;;;3.05;0.60;;;7.60;99.90;;;;;;4906990;29;20033;-71
2023/01/11 06:36:37;;;;;;;2.15;0.90;;;7.60;99.90;;;;;;4921669;29;20040;-72
2023/01/11 06:39:03;;;;;;;2.45;1.00;;;7.60;99.90;;;;;;4926987;29;20258;-72
2023/01/11 06:41:29;;;;;;;3.17;0.80;;;7.60;99.90;;;;;;4926228;29;20055;-71
2023/01/11 06:43:55;;;;;;;2.28;0.90;;;7.50;99.90;;;;;;4927105;29;20040;-71
2023/01/11 06:46:21;;;;;;;3.33;0.90;;;7.50;99.90;;;;;;4926420;29;20036;-72
2023/01/11 06:48:47;;;;;;;3.75;1.25;;;7.40;99.90;;;;;;4926638;29;20087;-71
2023/01/11 06:51:15;;;;;;;4.10;1.10;;;7.40;99.90;;;;;;4926197;29;20250;-74
2023/01/11 06:53:42;;;;;;;2.78;0.80;;;7.40;99.90;;;;;;4926602;29;20095;-71
2023/01/11 06:56:12;;;;;;;2.28;0.80;;;7.40;99.90;;;;;;4926852;29;20044;-71
2023/01/11 06:58:38;;;;;;;4.18;1.20;;;7.40;99.90;;;;;;4926939;29;20409;-71
2023/01/11 07:01:04;;;;;;;3.53;1.27;;;7.40;99.90;;;;;;4926915;29;20225;-70
2023/01/11 07:03:30;;;;;;;2.13;0.82;;;7.40;99.90;;;;;;4910858;29;20115;-72
2023/01/11 07:05:56;;;;;;;3.25;1.05;;;7.50;99.90;;;;;;4920293;29;20059;-71
2023/01/11 07:08:26;;;;;;;2.67;1.00;;;7.50;99.90;;;;;;4908881;29;20218;-72
2023/01/11 07:10:52;;;;;;;4.35;1.10;;;7.50;99.90;;;;;;4926701;29;20060;-71
2023/01/11 07:13:18;;;;;;;5.72;1.45;;;7.50;99.90;;;;;;4920393;29;20274;-71
2023/01/11 07:15:45;;;;;;;6.28;1.40;;;7.50;99.90;;;;;;4907317;29;20079;-72
2023/01/11 07:18:11;;;;;;;4.90;1.60;;;7.40;99.90;;;;;;4907234;29;20040;-72
2023/01/11 07:20:37;;;;;;;3.72;1.20;;;7.40;99.90;;;;;;4907118;29;20336;-71
2023/01/11 07:23:03;;;;;;;3.70;1.10;;;7.40;99.90;;;;;;4921770;29;20035;-71
2023/01/11 07:25:29;;;;;;;6.97;1.35;;;7.50;99.90;;;;;;4922014;29;20036;-71
2023/01/11 07:28:00;;;;;;;4.47;1.60;;;7.50;99.90;;;;;;4926054;29;20032;-71
2023/01/11 07:30:27;;;;;;;3.75;1.23;;;7.60;99.90;;;;;;4925340;29;20048;-71
2023/01/11 07:32:53;;;;;;;4.47;1.70;;;7.70;99.90;;;;;;4925704;29;20099;-72
2023/01/11 07:35:19;;;;;;;6.28;1.85;;;7.70;99.90;;;;;;4925685;29;20044;-71
2023/01/11 07:37:45;;;;;;;5.20;1.60;;;7.70;99.90;;;;;;4925526;29;20307;-71
2023/01/11 07:40:12;;;;;;;4.40;1.58;;;7.80;99.90;;;;;;4910621;29;20040;-71
2023/01/11 07:45:22;;;;;;;3.85;1.33;;;7.90;99.90;;;;;;4906653;29;20032;-71
2023/01/11 07:47:51;;;;;;;7.22;1.83;;;8.00;99.90;;;;;;4906757;29;20045;-71
2023/01/11 07:50:17;;;;;;;4.25;1.40;;;8.10;99.90;;;;;;4906539;29;20096;-71
2023/01/11 07:52:49;;;;;;;5.68;1.75;;;8.10;99.90;;;;;;4906908;29;20043;-71
2023/01/11 07:55:15;;;;;;;8.35;1.95;;;8.20;99.90;;;;;;4906762;29;20024;-72
2023/01/11 07:57:41;;;;;;;6.90;2.10;;;8.30;99.90;;;;;;4906865;29;20057;-71
2023/01/11 08:00:08;;;;;;;7.00;1.88;;;8.30;99.90;;;;;;4905702;29;20065;-71
2023/01/11 08:02:37;;;;;;;7.53;1.70;;;8.40;99.90;;;;;;4905940;29;20254;-71
2023/01/11 08:05:03;;;;;;;4.18;1.48;;;8.50;99.90;;;;;;4906788;29;20044;-71
2023/01/11 08:07:29;;;;;;;9.38;1.77;;;8.50;99.90;;;;;;4905028;29;20040;-70
2023/01/11 08:09:55;;;;;;;5.45;2.03;;;8.60;99.90;;;;;;4906753;29;20265;-71
2023/01/11 08:15:05;;;;;;;5.60;1.60;;;8.80;99.90;;;;;;4907003;29;20035;-70
2023/01/11 08:17:34;;;;;;;3.70;1.30;;;8.90;99.90;;;;;;4905631;29;20190;-71
2023/01/11 08:20:00;;;;;;;7.20;2.15;;;8.90;99.90;;;;;;4909193;29;20229;-72
2023/01/11 08:22:25;;;;;;;5.25;1.50;;;9.00;99.90;;;;;;4909929;29;20059;-71
2023/01/11 08:24:51;;;;;;;5.05;1.50;;;9.10;99.90;;;;;;4910380;29;20060;-72
2023/01/11 08:27:17;;;;;;;5.55;2.10;;;9.20;99.90;;;;;;4910080;29;20039;-71
2023/01/11 08:29:43;;;;;;;4.55;1.70;;;9.20;99.90;;;;;;4910268;29;20039;-71
2023/01/11 08:32:09;;;;;;;4.13;1.52;;;9.20;99.90;;;;;;4910002;29;20314;-72
2023/01/11 08:34:35;;;;;;;4.78;1.80;;;9.20;99.90;;;;;;4909826;29;20136;-71
2023/01/11 08:37:01;;;;;;;5.75;1.90;;;9.30;99.90;;;;;;4919846;29;20036;-70
2023/01/11 08:39:29;;;;;;;4.05;1.58;;;9.30;99.90;;;;;;4924813;29;20305;-73
2023/01/11 08:41:56;;;;;;;;;;;9.40;99.90;;;;;;4910721;29;20063;-70
2023/01/11 08:44:22;;;;;;;7.78;1.75;;;9.40;99.90;;;;;;4909539;29;20020;-71
2023/01/11 08:46:48;;;;;;;6.45;1.63;;;9.50;99.90;;;;;;4909460;29;20040;-71
2023/01/11 08:49:16;;;;;;;5.40;1.50;;;9.50;99.90;;;;;;4909244;29;20063;-71
2023/01/11 08:51:42;;;;;;;;;;;9.60;99.90;;;;;;4909507;29;20033;-71
2023/01/11 08:54:13;;;;;;;2.72;0.40;;;9.70;99.90;;;;;;4909427;29;19907;-72
2023/01/11 08:56:39;;;;;;;1.65;0.55;;;9.90;99.90;;;;;;4908901;29;20444;-70
2023/01/11 08:59:05;;;;;;;0.77;0.20;;;10.10;99.90;;;;;;4908729;29;20271;-71
2023/01/11 09:01:32;;;;;;;2.38;0.20;;;10.30;99.90;;;;;;4908835;29;20036;-71
2023/01/11 09:03:58;;;;;;;0.77;0.17;;;10.40;99.90;;;;;;4909543;29;20100;-72
2023/01/11 09:06:24;;;;;;;1.20;0.30;;;10.50;99.90;;;;;;4909017;29;20028;-71
2023/01/11 09:08:50;;;;;;;1.48;0.30;;;10.70;99.90;;;;;;4909718;29;20028;-71
2023/01/11 09:14:01;;;;;;;1.17;0.43;;;10.70;99.90;;;;;;4909449;29;20032;-73
2023/01/11 09:16:27;;;;;;;2.42;0.60;;;10.80;99.90;;;;;;4903145;29;20089;-72
2023/01/11 09:18:54;;;;;;;2.05;0.57;;;10.80;99.90;;;;;;4895002;29;20318;-71
2023/01/11 09:21:20;;;;;;;2.50;0.50;;;10.80;99.90;;;;;;4891877;29;20052;-74
2023/01/11 09:23:46;;;;;;;0.90;0.28;;;10.80;99.90;;;;;;4909003;29;20183;-71
2023/01/11 09:26:12;;;;;;;0.95;0.30;;;10.80;99.90;;;;;;4909018;29;20044;-71
2023/01/11 09:28:38;;;;;;;1.38;0.32;;;10.80;99.90;;;;;;4908271;29;20041;-73
2023/01/11 09:31:04;;;;;;;1.05;0.20;;;10.90;99.90;;;;;;4908221;29;20035;-73
2023/01/11 09:33:29;;;;;;;1.13;0.30;;;11.00;99.90;;;;;;4908233;29;20048;-73
2023/01/11 09:35:57;;;;;;;0.60;0.20;;;11.00;99.90;;;;;;4908907;29;20307;-72
2023/01/11 09:38:28;;;;;;;1.87;0.40;;;11.00;99.90;;;;;;4908555;29;20107;-72
2023/01/11 09:41:32;;;;;;;2.03;0.55;;;11.00;99.90;;;;;;4924276;29;20039;-71
2023/01/11 09:44:18;;;;;;;2.95;0.50;;;11.00;99.90;;;;;;4927780;29;20048;-72
2023/01/11 09:46:54;;;;;;;2.33;0.70;;;10.90;99.90;;;;;;4927649;29;20305;-71
2023/01/11 09:49:37;;;;;;;2.67;0.93;;;10.70;99.90;;;;;;4926907;29;20032;-70
2023/01/11 09:52:23;;;;;;;1.85;0.50;;;10.50;99.90;;;;;;4927372;29;20059;-72
2023/01/11 09:54:50;;;;;;;2.35;0.40;;;10.60;99.90;;;;;;4927647;29;20079;-71
2023/01/11 09:57:25;;;;;;;1.52;0.50;;;10.70;99.90;;;;;;4927321;29;20222;-71
2023/01/11 10:00:15;;;;;;;2.78;0.50;;;10.70;99.90;;;;;;4927330;29;20222;-72
2023/01/11 10:02:52;;;;;;;1.20;0.38;;;10.80;99.90;;;;;;4919155;29;20056;-71
2023/01/11 10:05:50;;;;;;;1.77;0.40;;;10.90;99.90;;;;;;4925452;29;20040;-71
2023/01/11 10:08:42;;;;;;;;;;;11.00;99.90;;;;;;4910161;29;20328;-72
2023/01/11 10:11:11;;;;;;;1.92;0.55;;;11.10;99.90;;;;;;4914270;29;19922;-71
2023/01/11 10:14:02;;;;;;;0.70;0.20;;;11.20;99.90;;;;;;4907671;29;20104;-71
2023/01/11 10:16:35;;;;;;;1.00;0.20;;;11.30;99.90;;;;;;4907556;29;20048;-72
2023/01/11 10:19:05;;;;;;;0.90;0.30;;;11.40;99.90;;;;;;4907892;29;20159;-71
2023/01/11 10:21:33;;;;;;;2.05;0.68;;;11.50;99.90;;;;;;4907434;29;20092;-72
2023/01/11 10:24:17;;;;;;;2.15;0.30;;;11.60;99.90;;;;;;4923753;29;20134;-70
2023/01/11 10:26:44;;;;;;;0.90;0.25;;;11.60;99.90;;;;;;4895246;29;20036;-71
2023/01/11 10:36:09;;;;;;;0.93;0.38;;;11.70;99.90;;;;;;4885775;29;20104;-73
2023/01/11 10:38:56;;;;;;;0.60;0.20;;;11.80;99.90;;;;;;4906264;29;20069;-71
2023/01/11 10:41:37;;;;;;;2.40;1.07;;;11.80;99.90;;;;;;4888711;29;20040;-73
2023/01/11 10:44:22;;;;;;;1.30;0.30;;;11.80;99.90;;;;;;4900804;29;20037;-73
2023/01/11 10:46:52;;;;;;;2.67;0.77;;;11.90;99.90;;;;;;4907490;29;20095;-73
2023/01/11 10:49:18;;;;;;;1.33;0.30;;;11.90;99.90;;;;;;4907763;29;20322;-71
2023/01/11 10:51:46;;;;;;;1.73;0.30;;;11.90;99.90;;;;;;4907592;29;20125;-73
2023/01/11 10:54:20;;;;;;;1.80;0.47;;;11.90;99.90;;;;;;4907044;29;20352;-72
2023/01/11 10:57:16;;;;;;;1.25;0.38;;;11.90;99.90;;;;;;4907469;29;20040;-75
2023/01/11 10:59:59;;;;;;;0.68;0.13;;;11.90;99.90;;;;;;4907018;29;20032;-70
2023/01/11 11:02:52;;;;;;;0.93;0.30;;;12.00;99.90;;;;;;4906592;29;20040;-73
2023/01/11 11:05:31;;;;;;;2.58;0.30;;;12.00;99.90;;;;;;4906597;29;20032;-74
2023/01/11 11:08:10;;;;;;;2.15;0.65;;;12.00;99.90;;;;;;4907312;29;20040;-72
2023/01/11 11:10:55;;;;;;;;;;;12.00;99.90;;;;;;4906718;29;20091;-71
2023/01/11 11:13:42;;;;;;;1.27;0.30;;;12.00;99.90;;;;;;4906110;29;20093;-76
2023/01/11 11:16:25;;;;;;;0.55;0.15;;;12.00;99.90;;;;;;4906683;29;20250;-72
2023/01/11 11:18:57;;;;;;;1.38;0.20;;;11.90;99.90;;;;;;4906581;29;20112;-73
2023/01/11 11:21:34;;;;;;;0.60;0.30;;;12.00;99.90;;;;;;4906406;29;20024;-73
2023/01/11 11:24:21;;;;;;;1.40;0.47;;;11.90;99.90;;;;;;4906764;29;20318;-71
2023/01/11 11:27:08;;;;;;;2.80;0.95;;;11.80;99.90;;;;;;4887548;29;20044;-71
2023/01/11 11:29:41;;;;;;;1.30;0.60;;;11.80;99.90;;;;;;4887379;29;20318;-71
2023/01/11 11:32:34;;;;;;;2.08;0.30;;;11.80;99.90;;;;;;4887951;29;20028;-72
2023/01/11 11:35:00;;;;;;;1.83;0.63;;;11.80;99.90;;;;;;4903224;29;20047;-73
2023/01/11 11:37:32;;;;;;;1.25;0.40;;;11.90;99.90;;;;;;4906318;29;20047;-73
2023/01/11 11:39:58;;;;;;;1.50;0.22;;;12.00;99.90;;;;;;4914610;29;20262;-72
2023/01/11 11:42:24;;;;;;;0.95;0.32;;;12.20;99.90;;;;;;4925463;29;20133;-73
2023/01/11 11:45:08;;;;;;;1.23;0.30;;;12.20;99.90;;;;;;4925355;29;20329;-74
2023/01/11 11:47:35;;;;;;;1.70;0.28;;;12.30;99.90;;;;;;4925156;29;20044;-74
2023/01/11 11:50:19;;;;;;;0.68;0.22;;;12.30;99.90;;;;;;4925924;29;20020;-72
2023/01/11 11:53:02;;;;;;;0.77;0.20;;;12.30;99.90;;;;;;4924916;29;20114;-73
2023/01/11 11:55:30;;;;;;;1.70;0.30;;;12.40;99.90;;;;;;4902187;29;20036;-75
2023/01/11 11:58:01;;;;;;;1.75;0.30;;;12.30;99.90;;;;;;4906262;29;20163;-72
2023/01/11 12:00:32;;;;;;;1.50;0.40;;;12.30;99.90;;;;;;4906420;29;20103;-73
2023/01/11 12:03:03;;;;;;;1.52;0.10;;;12.30;99.90;;;;;;4906007;29;20063;-73
2023/01/11 12:05:29;;;;;;;0.85;0.22;;;12.20;99.90;;;;;;4902453;29;20032;-74
2023/01/11 12:07:58;;;;;;;2.50;0.30;;;12.10;99.90;;;;;;4925304;29;20259;-75
2023/01/11 12:10:27;;;;;;;0.65;0.20;;;12.00;99.90;;;;;;4919230;29;20055;-72
2023/01/11 12:12:53;;;;;;;1.00;0.40;;;11.90;99.90;;;;;;4906438;29;20040;-75
2023/01/11 12:15:24;;;;;;;1.08;0.30;;;11.90;99.90;;;;;;4906772;29;20055;-73
2023/01/11 12:17:50;;;;;;;1.25;0.30;;;11.90;99.90;;;;;;4906365;29;20091;-73
2023/01/11 12:20:22;;;;;;;0.95;0.38;;;11.90;99.90;;;;;;4904921;29;20092;-71
2023/01/11 12:22:49;;;;;;;1.48;0.30;;;11.90;99.90;;;;;;4887675;29;20034;-73
2023/01/11 12:25:25;;;;;;;1.15;0.40;;;11.90;99.90;;;;;;4895430;29;20137;-73
2023/01/11 12:27:59;;;;;;;1.40;0.30;;;11.80;99.90;;;;;;4906538;29;20040;-73
2023/01/11 12:30:48;;;;;;;0.88;0.30;;;11.90;99.90;;;;;;4900566;29;20041;-75
2023/01/11 12:33:32;;;;;;;1.20;0.30;;;11.90;99.90;;;;;;4906459;29;20048;-76
2023/01/11 12:36:08;;;;;;;0.80;0.25;;;11.90;99.90;;;;;;4906311;29;20024;-74
2023/01/11 12:38:55;;;;;;;1.13;0.30;;;12.00;99.90;;;;;;4904906;29;20084;-75
2023/01/11 12:41:42;;;;;;;1.00;0.30;;;12.00;99.90;;;;;;4924942;29;20044;-73
2023/01/11 12:44:30;;;;;;;0.95;0.30;;;12.00;99.90;;;;;;4924840;29;20040;-72
2023/01/11 12:47:14;;;;;;;1.90;0.40;;;12.10;99.90;;;;;;4925282;29;20028;-73
2023/01/11 12:50:10;;;;;;;2.10;0.50;;;12.20;99.90;;;;;;4924578;29;20032;-74
2023/01/11 12:52:58;;;;;;;0.93;0.38;;;12.10;99.90;;;;;;4924748;29;20084;-72
2023/01/11 12:55:32;;;;;;;1.25;0.40;;;12.10;99.90;;;;;;4915483;29;20056;-72
2023/01/11 12:58:06;;;;;;;2.35;0.57;;;12.00;99.90;;;;;;4908373;29;20040;-73
2023/01/11 13:01:03;;;;;;;1.48;0.50;;;11.90;99.90;;;;;;4924525;29;20107;-71
2023/01/11 13:04:06;;;;;;;1.33;0.30;;;11.90;99.90;;;;;;4913285;29;20056;-71
2023/01/11 13:06:44;;;;;;;2.63;0.47;;;11.70;99.90;;;;;;4916958;29;20040;-73
2023/01/11 13:09:16;;;;;;;2.13;0.30;;;11.70;99.90;;;;;;4928723;29;20031;-72
2023/01/11 13:12:05;;;;;;;4.35;2.05;;;11.60;99.90;;;;;;4920789;29;20032;-71
2023/01/11 13:14:38;;;;;;;1.27;0.43;;;11.50;99.90;;;;;;4919834;29;20048;-71
2023/01/11 13:17:12;;;;;;;2.40;0.60;;;11.50;99.90;;;;;;4916741;29;20060;-71
2023/01/11 13:19:56;;;;;;;1.30;0.50;;;11.40;99.90;;;;;;4909220;29;20029;-73
2023/01/11 13:22:29;;;;;;;1.58;0.50;;;11.50;99.90;;;;;;4909551;29;20048;-70
2023/01/11 13:24:57;;;;;;;1.75;0.57;;;11.60;99.90;;;;;;4909545;29;20199;-70
2023/01/11 13:27:24;;;;;;;1.50;0.50;;;11.60;99.90;;;;;;4904727;29;20033;-71
2023/01/11 13:29:54;;;;;;;1.70;0.60;;;11.70;99.90;;;;;;4921989;29;20035;-71
2023/01/11 13:32:29;;;;;;;1.58;0.70;;;11.70;99.90;;;;;;4928193;29;20294;-71
2023/01/11 13:35:20;;;;;;;1.30;0.47;;;11.60;99.90;;;;;;4928323;29;20035;-71
2023/01/11 13:38:27;;;;;;;1.98;0.70;;;11.70;99.90;;;;;;4927349;29;20043;-71
2023/01/11 13:40:58;;;;;;;1.77;0.47;;;11.70;99.90;;;;;;4912484;29;20095;-72
2023/01/11 13:44:02;;;;;;;2.85;0.70;;;11.70;99.90;;;;;;4908181;29;20083;-71
2023/01/11 13:46:43;;;;;;;2.80;0.90;;;11.80;99.90;;;;;;4904747;29;20079;-71
2023/01/11 13:49:24;;;;;;;1.98;0.88;;;11.80;99.90;;;;;;4908571;29;20342;-72
2023/01/11 13:52:01;;;;;;;1.63;0.60;;;11.80;99.90;;;;;;4909072;29;20032;-71
2023/01/11 13:54:48;;;;;;;3.25;0.40;;;11.70;99.90;;;;;;4889534;29;20040;-75
2023/01/11 13:57:35;;;;;;;1.63;0.50;;;11.60;99.90;;;;;;4889607;29;20048;-70
2023/01/11 14:00:19;;;;;;;3.43;0.90;;;11.40;99.90;;;;;;4890097;29;20108;-72
2023/01/11 14:03:02;;;;;;;3.90;1.33;;;11.30;99.90;;;;;;4889195;29;20340;-72
2023/01/11 14:05:38;;;;;;;5.07;1.40;;;11.20;99.90;;;;;;4890931;29;20033;-70
2023/01/11 14:08:21;;;;;;;7.45;2.05;;;11.20;99.90;;;;;;4908379;29;20222;-71
2023/01/11 14:10:59;;;;;;;7.88;2.10;;;11.10;99.90;;;;;;4908083;29;20029;-72
2023/01/11 14:16:44;;;;;;;4.05;1.73;;;11.20;99.90;;;;;;4907792;29;20319;-72
2023/01/11 14:19:40;;;;;;;3.30;0.75;;;11.30;99.90;;;;;;4908167;29;20263;-71
2023/01/11 14:22:45;;;;;;;2.47;0.70;;;11.40;99.90;;;;;;4908021;29;20053;-72
2023/01/11 14:25:22;;;;;;;3.25;1.02;;;11.40;99.90;;;;;;4907213;29;20046;-72
2023/01/11 14:28:14;;;;;;;3.28;1.05;;;11.30;99.90;;;;;;4907673;29;20040;-73
2023/01/11 14:30:50;;;;;;;2.70;0.70;;;11.40;99.90;;;;;;4907354;29;20353;-72
2023/01/11 14:33:34;;;;;;;1.17;0.30;;;11.40;99.90;;;;;;4908151;29;20040;-71
2023/01/11 14:36:27;;;;;;;0.77;0.30;;;11.30;99.90;;;;;;4908323;29;20037;-75
2023/01/11 14:39:26;;;;;;;2.10;0.43;;;11.40;99.90;;;;;;4907033;29;20378;-72
2023/01/11 14:42:29;;;;;;;1.10;0.40;;;11.40;99.90;;;;;;4889257;29;20301;-72
2023/01/11 14:45:03;;;;;;;2.58;0.43;;;11.40;99.90;;;;;;4889011;29;20036;-72
2023/01/11 14:47:46;;;;;;;1.17;0.30;;;11.40;99.90;;;;;;4888426;29;20222;-72
2023/01/11 14:50:31;;;;;;;2.85;0.30;;;11.40;99.90;;;;;;4888846;29;20092;-72
2023/01/11 14:53:00;;;;;;;1.15;0.40;;;11.30;99.90;;;;;;4889204;29;20040;-73
2023/01/11 14:55:36;;;;;;;2.22;0.30;;;11.30;99.90;;;;;;4888881;29;20244;-71
2023/01/11 14:58:16;;;;;;;1.48;0.30;;;11.20;99.90;;;;;;4889103;29;20117;-72
2023/01/11 15:00:41;;;;;;;0.98;0.30;;;11.20;99.90;;;;;;4898377;29;20041;-71
2023/01/11 15:03:07;;;;;;;1.95;0.40;;;11.20;99.90;;;;;;4888453;29;20208;-72
2023/01/11 15:05:37;;;;;;;2.05;0.50;;;11.10;99.90;;;;;;4902543;29;20043;-73
2023/01/11 15:08:15;;;;;;;1.13;0.30;;;11.10;99.90;;;;;;4926345;29;20233;-71
2023/01/11 15:11:04;;;;;;;2.92;0.85;;;11.10;99.90;;;;;;4918994;29;20032;-71
2023/01/11 15:13:33;;;;;;;;;;;11.00;99.90;;;;;;4907108;29;20040;-71
2023/01/11 15:19:22;;;;;;;2.65;0.40;;;11.00;99.90;;;;;;4888578;29;20055;-73
2023/01/11 15:21:52;;;;;;;1.17;0.47;;;10.90;99.90;;;;;;4888125;29;20348;-72
2023/01/11 15:24:28;;;;;;;1.60;0.30;;;10.90;99.90;;;;;;4889809;29;20375;-74
2023/01/11 15:26:56;;;;;;;1.92;0.40;;;10.90;99.90;;;;;;4907182;29;20079;-73
2023/01/11 15:29:28;;;;;;;1.27;0.25;;;10.80;99.90;;;;;;4906717;29;20041;-71
2023/01/11 15:31:53;;;;;;;1.90;0.32;;;10.80;99.90;;;;;;4906714;29;20050;-72
2023/01/11 15:34:26;;;;;;;2.30;0.40;;;10.70;99.90;;;;;;4906973;29;20024;-71
2023/01/11 15:37:05;;;;;;;0.93;0.30;;;10.60;99.90;;;;;;4906399;29;20056;-72
2023/01/11 15:39:56;;;;;;;2.30;0.73;;;10.60;99.90;;;;;;4902487;29;20334;-71
2023/01/11 15:42:35;;;;;;;1.13;0.30;;;10.60;99.90;;;;;;4888773;29;20068;-73
2023/01/11 15:46:51;;;;;;;0.98;0.30;;;10.50;99.90;;;;;;4888047;29;20333;-73
2023/01/11 15:48:50;;;;;;;1.55;0.40;;;10.50;99.90;;;;;;4888059;29;20037;-73
2023/01/11 15:51:30;;;;;;;2.17;0.50;;;10.50;99.90;;;;;;4888661;29;20028;-73
2023/01/11 15:54:25;;;;;;;1.40;0.50;;;10.50;99.90;;;;;;4898534;29;20032;-73
2023/01/11 15:57:11;;;;;;;2.35;0.30;;;10.40;99.90;;;;;;4904623;29;20055;-73
2023/01/11 16:00:05;;;;;;;2.08;0.40;;;10.40;99.90;;;;;;4905363;29;20040;-71
2023/01/11 16:02:43;;;;;;;2.85;0.68;;;10.40;99.90;;;;;;4906661;29;20061;-73
2023/01/11 16:05:14;;;;;;;2.95;0.50;;;10.30;99.90;;;;;;4904776;29;20037;-73
2023/01/11 16:07:55;;;;;;;3.67;0.60;;;10.30;99.90;;;;;;4924538;29;20103;-74
2023/01/11 16:10:45;;;;;;;2.05;0.60;;;10.30;99.90;;;;;;4921321;29;20037;-72
2023/01/11 16:13:20;;;;;;;5.43;0.55;;;10.20;99.90;;;;;;4907298;29;20252;-76
2023/01/11 16:16:09;;;;;;;2.65;0.52;;;10.10;99.90;;;;;;4907154;29;20047;-75
2023/01/11 16:18:54;;;;;;;2.67;0.50;;;10.10;99.90;;;;;;4907247;29;20032;-76
2023/01/11 16:21:34;;;;;;;2.15;0.50;;;10.10;99.90;;;;;;4907696;29;20045;-76
2023/01/11 16:24:20;;;;;;;4.07;0.80;;;10.00;99.90;;;;;;4907531;29;20041;-75
2023/01/11 16:26:55;;;;;;;3.42;1.20;;;10.00;99.90;;;;;;4887650;29;20328;-76
2023/01/11 16:29:28;;;;;;;4.22;0.98;;;10.00;99.90;;;;;;4887758;29;20100;-75
2023/01/11 16:32:19;;;;;;;3.35;0.93;;;10.10;99.90;;;;;;4887259;29;20057;-76
2023/01/11 16:34:49;;;;;;;4.20;0.75;;;10.00;99.90;;;;;;4888249;29;20364;-77
2023/01/11 16:37:37;;;;;;;5.13;0.70;;;10.10;99.90;;;;;;4888115;29;20096;-75
2023/01/11 16:40:09;;;;;;;4.50;0.90;;;10.00;99.90;;;;;;4896509;29;20035;-75
2023/01/11 16:42:50;;;;;;;4.20;0.80;;;10.00;99.90;;;;;;4909587;29;20085;-75
2023/01/11 16:45:24;;;;;;;3.92;0.80;;;10.00;99.90;;;;;;4910530;29;20040;-75
2023/01/11 16:48:12;;;;;;;4.50;0.80;;;10.00;99.90;;;;;;4910343;29;20060;-72
2023/01/11 16:50:42;;;;;;;6.30;0.90;;;9.90;99.90;;;;;;4910092;29;20040;-73
2023/01/11 16:53:12;;;;;;;4.35;0.77;;;9.90;99.90;;;;;;4910419;29;20032;-71
2023/01/11 16:55:41;;;;;;;5.55;1.20;;;9.90;99.90;;;;;;4910030;29;20032;-72
2023/01/11 16:58:25;;;;;;;;;;;9.80;99.90;;;;;;4910232;29;20044;-72
2023/01/11 17:01:09;;;;;;;4.30;0.90;;;9.80;99.90;;;;;;4909619;29;19911;-71
2023/01/11 17:03:49;;;;;;;4.72;0.68;;;9.80;99.90;;;;;;4909505;29;20350;-73
2023/01/11 17:06:18;;;;;;;5.50;1.85;;;9.70;99.90;;;;;;4916928;29;20075;-72
2023/01/11 17:08:51;;;;;;;5.13;1.52;;;9.70;99.90;;;;;;4924098;29;20246;-72
2023/01/11 17:11:30;;;;;;;5.50;1.17;;;9.60;99.90;;;;;;4917050;29;20041;-73
2023/01/11 17:14:23;;;;;;;4.22;1.15;;;9.60;99.90;;;;;;4909310;29;20029;-74
2023/01/11 17:16:59;;;;;;;6.13;1.30;;;9.50;99.90;;;;;;4909313;29;20036;-72
2023/01/11 17:19:28;;;;;;;5.32;1.75;;;9.40;99.90;;;;;;4909597;29;20032;-72
2023/01/11 17:22:28;;;;;;;10.07;3.95;;;9.40;99.90;;;;;;4908944;29;20024;-71
2023/01/11 17:24:58;;;;;;;6.50;1.98;;;9.40;99.90;;;;;;4887894;29;20334;-72
2023/01/11 17:27:28;;;;;;;3.95;1.42;;;9.40;99.90;;;;;;4909264;29;20052;-74
2023/01/11 17:29:56;;;;;;;6.00;1.23;;;9.40;99.90;;;;;;4908677;29;20066;-73
2023/01/11 17:32:26;;;;;;;4.83;1.30;;;9.40;99.90;;;;;;4909167;29;20271;-74
2023/01/11 17:34:52;;;;;;;6.55;1.27;;;9.30;99.90;;;;;;4907755;29;20036;-73
2023/01/11 17:37:19;;;;;;;4.22;1.20;;;9.30;99.90;;;;;;4909234;29;20333;-73
2023/01/11 17:39:49;;;;;;;5.72;1.38;;;9.40;99.90;;;;;;4908835;29;20092;-72
2023/01/11 17:45:11;;;;;;;6.95;2.90;;;9.40;99.90;;;;;;4908870;29;20035;-73
2023/01/11 17:47:40;;;;;;;8.20;2.05;;;9.50;99.90;;;;;;4908342;29;20188;-72
2023/01/11 17:50:37;;;;;;;8.70;1.92;;;9.50;99.90;;;;;;4909320;29;20067;-73
2023/01/11 17:53:14;;;;;;;6.72;2.00;;;9.50;99.90;;;;;;4907733;29;20283;-73
2023/01/11 17:55:52;;;;;;;3.92;1.52;;;9.50;99.90;;;;;;4908254;29;20052;-72
2023/01/11 17:58:20;;;;;;;8.23;2.10;;;9.50;99.90;;;;;;4908929;29;20161;-72
2023/01/11 18:01:14;;;;;;;6.20;1.90;;;9.60;99.90;;;;;;4908140;29;20096;-72
2023/01/11 18:03:45;;;;;;;6.70;2.10;;;9.60;99.90;;;;;;4907143;29;20111;-73
2023/01/11 18:06:12;;;;;;;5.25;1.58;;;9.60;99.90;;;;;;4915716;29;20028;-72
2023/01/11 18:08:38;;;;;;;8.02;1.48;;;9.60;99.90;;;;;;4926765;29;20047;-73
2023/01/11 18:11:04;;;;;;;5.43;1.20;;;9.60;99.90;;;;;;4917777;29;20060;-73
2023/01/11 18:13:35;;;;;;;3.63;0.80;;;8.80;99.90;;;;;;4908616;29;20151;-73
2023/01/11 18:16:02;;;;;;;4.30;0.73;;;8.20;99.90;;;;;;4908232;29;20032;-72
2023/01/11 18:18:51;;;;;;;3.22;1.00;;;7.90;99.90;;;;;;4908431;29;20060;-73
2023/01/11 18:21:25;;;;;;;;;;;7.80;99.90;;;;;;4908738;29;20227;-72
2023/01/11 18:24:13;;;;;;;5.03;1.10;;;7.70;99.90;;;;;;4907621;29;19987;-72
2023/01/11 18:26:48;;;;;;;5.60;1.20;;;7.70;99.90;;;;;;4891212;29;20199;-71
2023/01/11 18:29:36;;;;;;;6.13;1.42;;;7.60;99.90;;;;;;4908186;29;20067;-72
2023/01/11 18:32:08;;;;;;;4.65;1.52;;;7.50;99.90;;;;;;4908214;29;20036;-71
2023/01/11 18:34:34;;;;;;;5.60;1.83;;;7.40;99.90;;;;;;4908418;29;20315;-72
2023/01/11 18:37:02;;;;;;;7.10;2.75;;;7.30;99.90;;;;;;4907771;29;20092;-76
2023/01/11 18:39:27;;;;;;;6.75;2.45;;;7.30;99.90;;;;;;4907889;29;20040;-73
2023/01/11 18:42:06;;;;;;;9.35;3.45;;;7.20;99.90;;;;;;4906600;29;20083;-72
2023/01/11 18:44:33;;;;;;;;;;;7.20;99.90;;;;;;4908322;29;20040;-72
2023/01/11 18:47:00;;;;;;;12.07;4.30;;;7.20;99.90;;;;;;4907078;29;19907;-71
2023/01/11 18:49:25;;;;;;;11.13;5.47;;;7.30;99.90;;;;;;4907504;29;20036;-72
2023/01/11 18:51:51;;;;;;;8.70;4.00;;;7.20;99.90;;;;;;4907399;29;20344;-73
2023/01/11 18:54:17;;;;;;;10.55;3.95;;;7.10;99.90;;;;;;4907479;29;20218;-72
2023/01/11 18:56:43;;;;;;;8.48;4.25;;;7.10;99.90;;;;;;4907336;29;20040;-73
2023/01/11 18:59:09;;;;;;;9.20;5.10;;;7.00;99.90;;;;;;4906273;29;20028;-73
2023/01/11 19:01:36;;;;;;;9.00;4.28;;;6.90;99.90;;;;;;4907557;29;20047;-71
2023/01/11 19:04:02;;;;;;;10.88;4.05;;;6.90;99.90;;;;;;4907143;29;20039;-72
2023/01/11 19:06:28;;;;;;;7.53;4.45;;;6.70;99.90;;;;;;4916890;29;20048;-73
2023/01/11 19:08:54;;;;;;;8.68;4.13;;;6.70;99.90;;;;;;4925789;29;20039;-74
2023/01/11 19:11:22;;;;;;;8.05;3.85;;;6.60;99.90;;;;;;4914690;29;20051;-73
2023/01/11 19:13:54;;;;;;;9.70;4.13;;;6.50;99.90;;;;;;4907033;29;20052;-73
2023/01/11 19:16:20;;;;;;;42.22;24.85;;;6.50;99.90;;;;;;4907444;29;20210;-71
2023/01/11 19:18:46;;;;;;;22.13;13.18;;;6.50;99.90;;;;;;4906834;29;20037;-72
2023/01/11 19:21:13;;;;;;;20.30;7.53;;;6.50;99.90;;;;;;4907343;29;20316;-73
2023/01/11 19:23:39;;;;;;;15.40;7.57;;;6.50;99.90;;;;;;4906898;29;20332;-72
2023/01/11 19:26:06;;;;;;;15.68;8.40;;;6.40;99.90;;;;;;4906466;29;20031;-73
2023/01/11 19:28:31;;;;;;;12.82;6.45;;;6.30;99.90;;;;;;4907434;29;20242;-75
2023/01/11 19:30:57;;;;;;;17.80;8.13;;;6.40;99.90;;;;;;4906761;29;20085;-73
2023/01/11 19:33:23;;;;;;;14.55;5.50;;;6.40;99.90;;;;;;4914698;29;20206;-72
2023/01/11 19:35:49;;;;;;;10.25;5.47;;;6.50;99.90;;;;;;4925428;29;20063;-73
2023/01/11 19:38:17;;;;;;;10.75;4.57;;;6.50;99.90;;;;;;4924742;29;20051;-73
2023/01/11 19:40:47;;;;;;;8.68;4.15;;;6.50;99.90;;;;;;4911587;29;20091;-73
2023/01/11 19:43:13;;;;;;;7.15;3.90;;;6.50;99.90;;;;;;4906742;29;20265;-74
2023/01/11 19:45:39;;;;;;;9.48;3.97;;;6.50;99.90;;;;;;4906170;29;20092;-72
2023/01/11 19:48:06;;;;;;;9.80;4.00;;;6.40;99.90;;;;;;4906907;29;20094;-73
2023/01/11 19:50:32;;;;;;;10.05;3.88;;;6.30;99.90;;;;;;4906808;29;20028;-74
2023/01/11 19:52:57;;;;;;;13.98;3.72;;;6.30;99.90;;;;;;4906221;29;20056;-72